sensor_id;sensor_type;location;lat;lon;timestamp;P1;durP1;ratioP1;P2;durP2;ratioP2
9208;SDS011;4639;48.862;9.188;2023-04-25T00:02:02;2.72;;;2.38;;
9208;SDS011;4639;48.862;9.188;2023-04-25T00:04:28;5.57;;;2.78;;
9208;SDS011;4639;48.862;9.188;2023-04-25T00:06:54;4.50;;;2.50;;
9208;SDS011;4639;48.862;9.188;2023-04-25T00:09:20;3.50;;;2.58;;
9208;SDS011;4639;48.862;9.188;2023-04-25T00:11:46;2.60;;;2.40;;
9208;SDS011;4639;48.862;9.188;2023-04-25T00:14:12;2.22;;;2.03;;
9208;SDS011;4639;48.862;9.188;2023-04-25T00:16:37;4.35;;;2.80;;
9208;SDS011;4639;48.862;9.188;2023-04-25T00:19:03;3.88;;;2.53;;
9208;SDS011;4639;48.862;9.188;2023-04-25T00:21:29;2.72;;;2.25;;
9208;SDS011;4639;48.862;9.188;2023-04-25T00:23:56;3.88;;;2.40;;
9208;SDS011;4639;48.862;9.188;2023-04-25T00:26:23;2.50;;;2.30;;
9208;SDS011;4639;48.862;9.188;2023-04-25T00:28:48;3.83;;;2.83;;
9208;SDS011;4639;48.862;9.188;2023-04-25T00:31:14;3.05;;;2.38;;
9208;SDS011;4639;48.862;9.188;2023-04-25T00:33:40;2.80;;;2.15;;
9208;SDS011;4639;48.862;9.188;2023-04-25T00:36:05;2.15;;;1.95;;
9208;SDS011;4639;48.862;9.188;2023-04-25T00:38:31;3.35;;;2.25;;
9208;SDS011;4639;48.862;9.188;2023-04-25T00:40:57;2.67;;;2.00;;
9208;SDS011;4639;48.862;9.188;2023-04-25T00:43:25;3.53;;;1.95;;
9208;SDS011;4639;48.862;9.188;2023-04-25T00:45:51;2.45;;;1.98;;
9208;SDS011;4639;48.862;9.188;2023-04-25T00:48:17;4.20;;;2.30;;
9208;SDS011;4639;48.862;9.188;2023-04-25T00:50:55;3.28;;;2.00;;
9208;SDS011;4639;48.862;9.188;2023-04-25T00:53:23;2.22;;;2.03;;
9208;SDS011;4639;48.862;9.188;2023-04-25T00:55:50;3.45;;;1.77;;
9208;SDS011;4639;48.862;9.188;2023-04-25T00:58:17;3.05;;;2.10;;
9208;SDS011;4639;48.862;9.188;2023-04-25T01:00:44;2.15;;;1.70;;
9208;SDS011;4639;48.862;9.188;2023-04-25T01:03:11;3.08;;;1.88;;
9208;SDS011;4639;48.862;9.188;2023-04-25T01:05:38;2.47;;;2.20;;
9208;SDS011;4639;48.862;9.188;2023-04-25T01:08:06;3.00;;;2.30;;
9208;SDS011;4639;48.862;9.188;2023-04-25T01:10:32;3.28;;;2.10;;
9208;SDS011;4639;48.862;9.188;2023-04-25T01:12:57;3.35;;;2.40;;
9208;SDS011;4639;48.862;9.188;2023-04-25T01:15:23;3.13;;;2.30;;
9208;SDS011;4639;48.862;9.188;2023-04-25T01:17:49;2.20;;;2.00;;
9208;SDS011;4639;48.862;9.188;2023-04-25T01:20:14;2.65;;;2.10;;
9208;SDS011;4639;48.862;9.188;2023-04-25T01:22:40;3.75;;;2.00;;
9208;SDS011;4639;48.862;9.188;2023-04-25T01:25:07;2.67;;;1.83;;
9208;SDS011;4639;48.862;9.188;2023-04-25T01:27:33;3.00;;;2.05;;
9208;SDS011;4639;48.862;9.188;2023-04-25T01:30:00;3.72;;;2.15;;
9208;SDS011;4639;48.862;9.188;2023-04-25T01:32:26;4.85;;;2.03;;
9208;SDS011;4639;48.862;9.188;2023-04-25T01:34:52;3.20;;;2.50;;
9208;SDS011;4639;48.862;9.188;2023-04-25T01:37:17;5.13;;;1.80;;
9208;SDS011;4639;48.862;9.188;2023-04-25T01:39:43;2.55;;;1.90;;
9208;SDS011;4639;48.862;9.188;2023-04-25T01:42:09;2.55;;;2.22;;
9208;SDS011;4639;48.862;9.188;2023-04-25T01:44:35;2.10;;;1.90;;
9208;SDS011;4639;48.862;9.188;2023-04-25T01:47:00;4.22;;;2.35;;
9208;SDS011;4639;48.862;9.188;2023-04-25T01:49:26;2.35;;;2.10;;
9208;SDS011;4639;48.862;9.188;2023-04-25T01:51:52;3.33;;;2.38;;
9208;SDS011;4639;48.862;9.188;2023-04-25T01:54:17;3.40;;;2.35;;
9208;SDS011;4639;48.862;9.188;2023-04-25T01:56:49;2.70;;;2.17;;
9208;SDS011;4639;48.862;9.188;2023-04-25T01:59:16;3.55;;;2.38;;
9208;SDS011;4639;48.862;9.188;2023-04-25T02:01:41;2.42;;;2.22;;
9208;SDS011;4639;48.862;9.188;2023-04-25T02:04:07;4.25;;;2.38;;
9208;SDS011;4639;48.862;9.188;2023-04-25T02:06:32;5.82;;;2.75;;
9208;SDS011;4639;48.862;9.188;2023-04-25T02:08:58;4.18;;;2.60;;
9208;SDS011;4639;48.862;9.188;2023-04-25T02:11:23;6.35;;;2.50;;
9208;SDS011;4639;48.862;9.188;2023-04-25T02:13:49;4.03;;;2.67;;
9208;SDS011;4639;48.862;9.188;2023-04-25T02:16:14;2.92;;;2.60;;
9208;SDS011;4639;48.862;9.188;2023-04-25T02:18:40;4.68;;;2.60;;
9208;SDS011;4639;48.862;9.188;2023-04-25T02:21:05;4.57;;;2.28;;
9208;SDS011;4639;48.862;9.188;2023-04-25T02:23:31;6.47;;;3.13;;
9208;SDS011;4639;48.862;9.188;2023-04-25T02:25:57;4.03;;;2.97;;
9208;SDS011;4639;48.862;9.188;2023-04-25T02:28:23;3.88;;;2.92;;
9208;SDS011;4639;48.862;9.188;2023-04-25T02:30:50;4.18;;;2.78;;
9208;SDS011;4639;48.862;9.188;2023-04-25T02:33:16;3.40;;;2.90;;
9208;SDS011;4639;48.862;9.188;2023-04-25T02:35:42;3.15;;;2.83;;
9208;SDS011;4639;48.862;9.188;2023-04-25T02:38:08;4.00;;;2.85;;
9208;SDS011;4639;48.862;9.188;2023-04-25T02:40:33;4.22;;;2.63;;
9208;SDS011;4639;48.862;9.188;2023-04-25T02:42:59;6.35;;;2.72;;
9208;SDS011;4639;48.862;9.188;2023-04-25T02:45:24;4.03;;;2.70;;
9208;SDS011;4639;48.862;9.188;2023-04-25T02:47:50;6.15;;;3.17;;
9208;SDS011;4639;48.862;9.188;2023-04-25T02:50:16;5.88;;;3.03;;
9208;SDS011;4639;48.862;9.188;2023-04-25T02:52:43;2.97;;;2.72;;
9208;SDS011;4639;48.862;9.188;2023-04-25T02:55:08;3.75;;;3.25;;
9208;SDS011;4639;48.862;9.188;2023-04-25T02:57:35;4.18;;;2.95;;
9208;SDS011;4639;48.862;9.188;2023-04-25T03:00:01;3.78;;;2.90;;
9208;SDS011;4639;48.862;9.188;2023-04-25T03:02:26;4.00;;;2.60;;
9208;SDS011;4639;48.862;9.188;2023-04-25T03:04:52;5.00;;;3.03;;
9208;SDS011;4639;48.862;9.188;2023-04-25T03:07:18;5.68;;;3.10;;
9208;SDS011;4639;48.862;9.188;2023-04-25T03:09:44;4.07;;;2.90;;
9208;SDS011;4639;48.862;9.188;2023-04-25T03:12:09;3.40;;;2.65;;
9208;SDS011;4639;48.862;9.188;2023-04-25T03:14:35;3.92;;;2.80;;
9208;SDS011;4639;48.862;9.188;2023-04-25T03:17:01;3.22;;;2.50;;
9208;SDS011;4639;48.862;9.188;2023-04-25T03:19:26;4.35;;;2.95;;
9208;SDS011;4639;48.862;9.188;2023-04-25T03:21:52;4.43;;;2.55;;
9208;SDS011;4639;48.862;9.188;2023-04-25T03:24:18;3.17;;;2.63;;
9208;SDS011;4639;48.862;9.188;2023-04-25T03:26:44;4.18;;;2.90;;
9208;SDS011;4639;48.862;9.188;2023-04-25T03:29:10;3.13;;;2.78;;
9208;SDS011;4639;48.862;9.188;2023-04-25T03:31:36;4.10;;;2.63;;
9208;SDS011;4639;48.862;9.188;2023-04-25T03:34:02;5.80;;;2.83;;
9208;SDS011;4639;48.862;9.188;2023-04-25T03:36:27;4.25;;;3.00;;
9208;SDS011;4639;48.862;9.188;2023-04-25T03:38:53;5.57;;;2.78;;
9208;SDS011;4639;48.862;9.188;2023-04-25T03:41:18;3.45;;;2.60;;
9208;SDS011;4639;48.862;9.188;2023-04-25T03:43:45;3.17;;;2.50;;
9208;SDS011;4639;48.862;9.188;2023-04-25T03:46:10;4.43;;;3.30;;
9208;SDS011;4639;48.862;9.188;2023-04-25T03:48:36;3.55;;;3.25;;
9208;SDS011;4639;48.862;9.188;2023-04-25T03:51:01;4.38;;;3.45;;
9208;SDS011;4639;48.862;9.188;2023-04-25T03:53:27;4.15;;;3.08;;
9208;SDS011;4639;48.862;9.188;2023-04-25T03:55:53;3.40;;;3.10;;
9208;SDS011;4639;48.862;9.188;2023-04-25T03:58:18;3.72;;;3.38;;
9208;SDS011;4639;48.862;9.188;2023-04-25T04:00:44;5.90;;;3.35;;
9208;SDS011;4639;48.862;9.188;2023-04-25T04:03:10;5.57;;;3.35;;
9208;SDS011;4639;48.862;9.188;2023-04-25T04:05:36;3.85;;;3.40;;
9208;SDS011;4639;48.862;9.188;2023-04-25T04:08:02;5.53;;;4.00;;
9208;SDS011;4639;48.862;9.188;2023-04-25T04:10:27;5.20;;;3.40;;
9208;SDS011;4639;48.862;9.188;2023-04-25T04:12:53;4.55;;;4.03;;
9208;SDS011;4639;48.862;9.188;2023-04-25T04:15:18;5.28;;;3.92;;
9208;SDS011;4639;48.862;9.188;2023-04-25T04:17:44;6.97;;;4.25;;
9208;SDS011;4639;48.862;9.188;2023-04-25T04:20:11;4.85;;;3.85;;
9208;SDS011;4639;48.862;9.188;2023-04-25T04:22:37;5.15;;;4.40;;
9208;SDS011;4639;48.862;9.188;2023-04-25T04:25:02;4.47;;;4.05;;
9208;SDS011;4639;48.862;9.188;2023-04-25T04:27:30;4.57;;;4.18;;
9208;SDS011;4639;48.862;9.188;2023-04-25T04:29:57;4.20;;;3.80;;
9208;SDS011;4639;48.862;9.188;2023-04-25T04:32:22;5.55;;;4.20;;
9208;SDS011;4639;48.862;9.188;2023-04-25T04:34:48;6.07;;;4.25;;
9208;SDS011;4639;48.862;9.188;2023-04-25T04:37:14;5.35;;;3.83;;
9208;SDS011;4639;48.862;9.188;2023-04-25T04:39:40;4.93;;;4.15;;
9208;SDS011;4639;48.862;9.188;2023-04-25T04:42:05;5.57;;;4.00;;
9208;SDS011;4639;48.862;9.188;2023-04-25T04:44:31;5.63;;;4.25;;
9208;SDS011;4639;48.862;9.188;2023-04-25T04:46:57;5.43;;;4.93;;
9208;SDS011;4639;48.862;9.188;2023-04-25T04:49:23;4.70;;;4.30;;
9208;SDS011;4639;48.862;9.188;2023-04-25T04:51:49;4.57;;;3.75;;
9208;SDS011;4639;48.862;9.188;2023-04-25T04:54:15;4.28;;;3.88;;
9208;SDS011;4639;48.862;9.188;2023-04-25T04:56:40;5.18;;;4.25;;
9208;SDS011;4639;48.862;9.188;2023-04-25T04:59:06;4.35;;;3.95;;
9208;SDS011;4639;48.862;9.188;2023-04-25T05:01:32;7.57;;;4.25;;
9208;SDS011;4639;48.862;9.188;2023-04-25T05:04:00;4.72;;;4.15;;
9208;SDS011;4639;48.862;9.188;2023-04-25T05:06:26;5.68;;;3.90;;
9208;SDS011;4639;48.862;9.188;2023-04-25T05:08:53;6.03;;;3.78;;
9208;SDS011;4639;48.862;9.188;2023-04-25T05:11:19;4.53;;;3.80;;
9208;SDS011;4639;48.862;9.188;2023-04-25T05:13:45;5.10;;;4.25;;
9208;SDS011;4639;48.862;9.188;2023-04-25T05:16:11;5.20;;;3.85;;
9208;SDS011;4639;48.862;9.188;2023-04-25T05:18:38;4.30;;;3.90;;
9208;SDS011;4639;48.862;9.188;2023-04-25T05:21:04;4.18;;;3.75;;
9208;SDS011;4639;48.862;9.188;2023-04-25T05:23:30;4.50;;;4.10;;
9208;SDS011;4639;48.862;9.188;2023-04-25T05:25:57;4.68;;;4.15;;
9208;SDS011;4639;48.862;9.188;2023-04-25T05:28:23;5.55;;;3.90;;
9208;SDS011;4639;48.862;9.188;2023-04-25T05:30:49;5.35;;;3.80;;
9208;SDS011;4639;48.862;9.188;2023-04-25T05:33:14;4.65;;;4.03;;
9208;SDS011;4639;48.862;9.188;2023-04-25T05:35:40;4.75;;;4.00;;
9208;SDS011;4639;48.862;9.188;2023-04-25T05:38:06;4.75;;;4.10;;
9208;SDS011;4639;48.862;9.188;2023-04-25T05:40:32;4.97;;;4.47;;
9208;SDS011;4639;48.862;9.188;2023-04-25T05:42:57;5.63;;;4.55;;
9208;SDS011;4639;48.862;9.188;2023-04-25T05:45:23;5.47;;;4.97;;
9208;SDS011;4639;48.862;9.188;2023-04-25T05:47:48;5.15;;;4.72;;
9208;SDS011;4639;48.862;9.188;2023-04-25T05:50:14;6.95;;;4.80;;
9208;SDS011;4639;48.862;9.188;2023-04-25T05:52:40;6.05;;;4.50;;
9208;SDS011;4639;48.862;9.188;2023-04-25T05:55:05;5.65;;;4.75;;
9208;SDS011;4639;48.862;9.188;2023-04-25T05:57:31;5.00;;;4.53;;
9208;SDS011;4639;48.862;9.188;2023-04-25T05:59:57;4.88;;;4.35;;
9208;SDS011;4639;48.862;9.188;2023-04-25T06:02:23;5.97;;;4.53;;
9208;SDS011;4639;48.862;9.188;2023-04-25T06:04:51;4.43;;;4.00;;
9208;SDS011;4639;48.862;9.188;2023-04-25T06:07:17;7.88;;;4.28;;
9208;SDS011;4639;48.862;9.188;2023-04-25T06:09:43;4.75;;;3.85;;
9208;SDS011;4639;48.862;9.188;2023-04-25T06:12:09;4.75;;;3.45;;
9208;SDS011;4639;48.862;9.188;2023-04-25T06:14:35;4.78;;;4.28;;
9208;SDS011;4639;48.862;9.188;2023-04-25T06:17:00;5.88;;;3.95;;
9208;SDS011;4639;48.862;9.188;2023-04-25T06:19:31;5.22;;;4.13;;
9208;SDS011;4639;48.862;9.188;2023-04-25T06:21:57;5.05;;;4.13;;
9208;SDS011;4639;48.862;9.188;2023-04-25T06:24:23;6.30;;;4.28;;
9208;SDS011;4639;48.862;9.188;2023-04-25T06:26:48;5.72;;;3.55;;
9208;SDS011;4639;48.862;9.188;2023-04-25T06:29:14;4.10;;;3.70;;
9208;SDS011;4639;48.862;9.188;2023-04-25T06:31:40;5.03;;;4.30;;
9208;SDS011;4639;48.862;9.188;2023-04-25T06:34:05;4.72;;;3.92;;
9208;SDS011;4639;48.862;9.188;2023-04-25T06:36:31;5.38;;;3.80;;
9208;SDS011;4639;48.862;9.188;2023-04-25T06:38:56;4.88;;;3.83;;
9208;SDS011;4639;48.862;9.188;2023-04-25T06:41:22;4.82;;;3.90;;
9208;SDS011;4639;48.862;9.188;2023-04-25T06:43:48;4.43;;;3.70;;
9208;SDS011;4639;48.862;9.188;2023-04-25T06:46:13;5.55;;;5.05;;
9208;SDS011;4639;48.862;9.188;2023-04-25T06:48:39;4.97;;;4.00;;
9208;SDS011;4639;48.862;9.188;2023-04-25T06:51:04;7.30;;;3.90;;
9208;SDS011;4639;48.862;9.188;2023-04-25T06:53:30;4.50;;;4.10;;
9208;SDS011;4639;48.862;9.188;2023-04-25T06:55:55;6.25;;;4.57;;
9208;SDS011;4639;48.862;9.188;2023-04-25T06:58:21;5.70;;;4.28;;
9208;SDS011;4639;48.862;9.188;2023-04-25T07:00:47;7.13;;;5.28;;
9208;SDS011;4639;48.862;9.188;2023-04-25T07:03:13;4.47;;;4.07;;
9208;SDS011;4639;48.862;9.188;2023-04-25T07:05:38;8.63;;;7.63;;
9208;SDS011;4639;48.862;9.188;2023-04-25T07:08:04;5.68;;;4.53;;
9208;SDS011;4639;48.862;9.188;2023-04-25T07:10:29;6.80;;;4.68;;
9208;SDS011;4639;48.862;9.188;2023-04-25T07:12:55;5.10;;;4.65;;
9208;SDS011;4639;48.862;9.188;2023-04-25T07:15:21;5.25;;;4.65;;
9208;SDS011;4639;48.862;9.188;2023-04-25T07:17:46;6.10;;;4.63;;
9208;SDS011;4639;48.862;9.188;2023-04-25T07:20:12;5.68;;;4.50;;
9208;SDS011;4639;48.862;9.188;2023-04-25T07:22:38;15.00;;;5.68;;
9208;SDS011;4639;48.862;9.188;2023-04-25T07:25:03;10.57;;;5.30;;
9208;SDS011;4639;48.862;9.188;2023-04-25T07:27:29;248.80;;;31.55;;
9208;SDS011;4639;48.862;9.188;2023-04-25T07:29:55;18.02;;;6.03;;
9208;SDS011;4639;48.862;9.188;2023-04-25T07:32:22;6.05;;;5.35;;
9208;SDS011;4639;48.862;9.188;2023-04-25T07:34:48;8.90;;;4.65;;
9208;SDS011;4639;48.862;9.188;2023-04-25T07:37:13;6.07;;;5.13;;
9208;SDS011;4639;48.862;9.188;2023-04-25T07:39:39;5.80;;;5.20;;
9208;SDS011;4639;48.862;9.188;2023-04-25T07:42:05;6.80;;;5.00;;
9208;SDS011;4639;48.862;9.188;2023-04-25T07:44:33;6.90;;;5.10;;
9208;SDS011;4639;48.862;9.188;2023-04-25T07:47:06;5.60;;;5.00;;
9208;SDS011;4639;48.862;9.188;2023-04-25T07:49:33;9.73;;;5.57;;
9208;SDS011;4639;48.862;9.188;2023-04-25T07:52:03;5.93;;;4.90;;
9208;SDS011;4639;48.862;9.188;2023-04-25T07:54:30;5.13;;;4.63;;
9208;SDS011;4639;48.862;9.188;2023-04-25T07:56:56;7.75;;;5.40;;
9208;SDS011;4639;48.862;9.188;2023-04-25T07:59:22;6.00;;;5.43;;
9208;SDS011;4639;48.862;9.188;2023-04-25T08:01:48;6.95;;;5.63;;
9208;SDS011;4639;48.862;9.188;2023-04-25T08:04:13;6.28;;;4.93;;
9208;SDS011;4639;48.862;9.188;2023-04-25T08:06:39;7.90;;;5.22;;
9208;SDS011;4639;48.862;9.188;2023-04-25T08:09:05;6.10;;;5.50;;
9208;SDS011;4639;48.862;9.188;2023-04-25T08:11:31;6.53;;;5.22;;
9208;SDS011;4639;48.862;9.188;2023-04-25T08:13:56;6.25;;;5.65;;
9208;SDS011;4639;48.862;9.188;2023-04-25T08:16:22;5.53;;;5.00;;
9208;SDS011;4639;48.862;9.188;2023-04-25T08:18:47;7.15;;;5.68;;
9208;SDS011;4639;48.862;9.188;2023-04-25T08:21:14;6.20;;;5.65;;
9208;SDS011;4639;48.862;9.188;2023-04-25T08:23:40;7.68;;;6.07;;
9208;SDS011;4639;48.862;9.188;2023-04-25T08:26:05;6.38;;;5.78;;
9208;SDS011;4639;48.862;9.188;2023-04-25T08:28:32;5.57;;;4.93;;
9208;SDS011;4639;48.862;9.188;2023-04-25T08:30:57;5.15;;;4.75;;
9208;SDS011;4639;48.862;9.188;2023-04-25T08:33:23;7.80;;;5.35;;
9208;SDS011;4639;48.862;9.188;2023-04-25T08:35:48;5.10;;;4.60;;
9208;SDS011;4639;48.862;9.188;2023-04-25T08:38:14;5.35;;;4.78;;
9208;SDS011;4639;48.862;9.188;2023-04-25T08:40:40;6.60;;;5.13;;
9208;SDS011;4639;48.862;9.188;2023-04-25T08:43:09;6.53;;;4.70;;
9208;SDS011;4639;48.862;9.188;2023-04-25T08:45:39;6.13;;;5.10;;
9208;SDS011;4639;48.862;9.188;2023-04-25T08:48:10;5.45;;;4.60;;
9208;SDS011;4639;48.862;9.188;2023-04-25T08:50:40;5.28;;;4.78;;
9208;SDS011;4639;48.862;9.188;2023-04-25T08:53:17;6.10;;;5.50;;
9208;SDS011;4639;48.862;9.188;2023-04-25T08:55:46;5.60;;;5.10;;
9208;SDS011;4639;48.862;9.188;2023-04-25T08:58:14;7.78;;;5.90;;
9208;SDS011;4639;48.862;9.188;2023-04-25T09:00:40;7.13;;;6.25;;
9208;SDS011;4639;48.862;9.188;2023-04-25T09:03:06;6.25;;;5.43;;
9208;SDS011;4639;48.862;9.188;2023-04-25T09:05:32;8.95;;;6.60;;
9208;SDS011;4639;48.862;9.188;2023-04-25T09:07:59;8.27;;;6.90;;
9208;SDS011;4639;48.862;9.188;2023-04-25T09:10:25;11.73;;;7.32;;
9208;SDS011;4639;48.862;9.188;2023-04-25T09:13:05;9.73;;;7.85;;
9208;SDS011;4639;48.862;9.188;2023-04-25T09:15:31;9.43;;;8.45;;
9208;SDS011;4639;48.862;9.188;2023-04-25T09:17:58;8.85;;;7.30;;
9208;SDS011;4639;48.862;9.188;2023-04-25T09:20:24;10.90;;;7.90;;
9208;SDS011;4639;48.862;9.188;2023-04-25T09:23:03;8.30;;;7.50;;
9208;SDS011;4639;48.862;9.188;2023-04-25T09:25:33;8.60;;;7.57;;
9208;SDS011;4639;48.862;9.188;2023-04-25T09:28:03;5.93;;;5.32;;
9208;SDS011;4639;48.862;9.188;2023-04-25T09:30:30;7.55;;;5.70;;
9208;SDS011;4639;48.862;9.188;2023-04-25T09:32:59;6.78;;;6.15;;
9208;SDS011;4639;48.862;9.188;2023-04-25T09:35:40;7.55;;;6.53;;
9208;SDS011;4639;48.862;9.188;2023-04-25T09:38:13;6.70;;;6.10;;
9208;SDS011;4639;48.862;9.188;2023-04-25T09:40:43;6.50;;;5.90;;
9208;SDS011;4639;48.862;9.188;2023-04-25T09:43:12;5.68;;;5.18;;
9208;SDS011;4639;48.862;9.188;2023-04-25T09:45:43;6.07;;;5.57;;
9208;SDS011;4639;48.862;9.188;2023-04-25T09:48:10;6.88;;;6.28;;
9208;SDS011;4639;48.862;9.188;2023-04-25T09:50:37;8.52;;;7.20;;
9208;SDS011;4639;48.862;9.188;2023-04-25T09:53:04;7.43;;;6.78;;
9208;SDS011;4639;48.862;9.188;2023-04-25T09:55:31;7.10;;;6.47;;
9208;SDS011;4639;48.862;9.188;2023-04-25T09:58:00;7.28;;;6.50;;
9208;SDS011;4639;48.862;9.188;2023-04-25T10:00:30;6.78;;;6.03;;
9208;SDS011;4639;48.862;9.188;2023-04-25T10:02:57;9.93;;;8.90;;
9208;SDS011;4639;48.862;9.188;2023-04-25T10:05:30;9.43;;;8.52;;
9208;SDS011;4639;48.862;9.188;2023-04-25T10:08:00;8.80;;;7.90;;
9208;SDS011;4639;48.862;9.188;2023-04-25T10:10:29;8.73;;;7.93;;
9208;SDS011;4639;48.862;9.188;2023-04-25T10:12:57;7.97;;;7.18;;
9208;SDS011;4639;48.862;9.188;2023-04-25T10:15:23;8.15;;;7.10;;
9208;SDS011;4639;48.862;9.188;2023-04-25T10:17:50;6.18;;;5.57;;
9208;SDS011;4639;48.862;9.188;2023-04-25T10:20:15;9.27;;;5.95;;
9208;SDS011;4639;48.862;9.188;2023-04-25T10:22:44;6.15;;;5.65;;
9208;SDS011;4639;48.862;9.188;2023-04-25T10:25:13;9.27;;;7.43;;
9208;SDS011;4639;48.862;9.188;2023-04-25T10:27:39;8.45;;;7.65;;
9208;SDS011;4639;48.862;9.188;2023-04-25T10:30:06;10.13;;;9.10;;
9208;SDS011;4639;48.862;9.188;2023-04-25T10:32:41;9.88;;;7.57;;
9208;SDS011;4639;48.862;9.188;2023-04-25T10:37:37;7.40;;;6.22;;
9208;SDS011;4639;48.862;9.188;2023-04-25T10:40:09;6.93;;;6.20;;
9208;SDS011;4639;48.862;9.188;2023-04-25T10:42:35;7.85;;;6.93;;
9208;SDS011;4639;48.862;9.188;2023-04-25T10:45:09;8.15;;;7.45;;
9208;SDS011;4639;48.862;9.188;2023-04-25T10:47:35;8.07;;;7.03;;
9208;SDS011;4639;48.862;9.188;2023-04-25T10:50:05;7.85;;;6.70;;
9208;SDS011;4639;48.862;9.188;2023-04-25T10:52:33;10.65;;;6.97;;
9208;SDS011;4639;48.862;9.188;2023-04-25T10:54:58;8.10;;;7.30;;
9208;SDS011;4639;48.862;9.188;2023-04-25T11:02:31;10.23;;;7.53;;
9208;SDS011;4639;48.862;9.188;2023-04-25T11:05:01;7.22;;;6.32;;
9208;SDS011;4639;48.862;9.188;2023-04-25T11:07:44;8.15;;;6.85;;
9208;SDS011;4639;48.862;9.188;2023-04-25T11:10:15;8.40;;;7.28;;
9208;SDS011;4639;48.862;9.188;2023-04-25T11:12:41;8.80;;;7.82;;
9208;SDS011;4639;48.862;9.188;2023-04-25T11:15:07;7.00;;;6.28;;
9208;SDS011;4639;48.862;9.188;2023-04-25T11:17:33;6.13;;;5.60;;
9208;SDS011;4639;48.862;9.188;2023-04-25T11:19:59;6.40;;;5.80;;
9208;SDS011;4639;48.862;9.188;2023-04-25T11:22:26;7.72;;;5.75;;
9208;SDS011;4639;48.862;9.188;2023-04-25T11:24:52;5.60;;;5.10;;
9208;SDS011;4639;48.862;9.188;2023-04-25T11:27:18;6.25;;;5.65;;
9208;SDS011;4639;48.862;9.188;2023-04-25T11:29:45;6.60;;;5.97;;
9208;SDS011;4639;48.862;9.188;2023-04-25T11:32:13;6.20;;;5.45;;
9208;SDS011;4639;48.862;9.188;2023-04-25T11:34:43;6.28;;;5.68;;
9208;SDS011;4639;48.862;9.188;2023-04-25T11:37:10;6.20;;;5.63;;
9208;SDS011;4639;48.862;9.188;2023-04-25T11:39:37;7.28;;;6.57;;
9208;SDS011;4639;48.862;9.188;2023-04-25T11:42:03;5.55;;;5.05;;
9208;SDS011;4639;48.862;9.188;2023-04-25T11:44:30;5.55;;;5.05;;
9208;SDS011;4639;48.862;9.188;2023-04-25T11:46:56;5.93;;;5.32;;
9208;SDS011;4639;48.862;9.188;2023-04-25T11:49:21;5.63;;;5.05;;
9208;SDS011;4639;48.862;9.188;2023-04-25T11:51:49;5.63;;;5.03;;
9208;SDS011;4639;48.862;9.188;2023-04-25T11:54:15;5.50;;;4.75;;
9208;SDS011;4639;48.862;9.188;2023-04-25T11:56:41;5.80;;;5.18;;
9208;SDS011;4639;48.862;9.188;2023-04-25T11:59:11;8.02;;;5.80;;
9208;SDS011;4639;48.862;9.188;2023-04-25T12:01:37;5.75;;;5.15;;
9208;SDS011;4639;48.862;9.188;2023-04-25T12:07:09;6.63;;;4.40;;
9208;SDS011;4639;48.862;9.188;2023-04-25T12:09:35;5.93;;;4.65;;
9208;SDS011;4639;48.862;9.188;2023-04-25T12:12:00;5.93;;;5.40;;
9208;SDS011;4639;48.862;9.188;2023-04-25T12:14:31;5.55;;;5.05;;
9208;SDS011;4639;48.862;9.188;2023-04-25T12:17:00;7.50;;;5.82;;
9208;SDS011;4639;48.862;9.188;2023-04-25T12:19:31;6.35;;;5.75;;
9208;SDS011;4639;48.862;9.188;2023-04-25T12:21:58;7.15;;;6.45;;
9208;SDS011;4639;48.862;9.188;2023-04-25T12:24:26;6.75;;;6.10;;
9208;SDS011;4639;48.862;9.188;2023-04-25T12:26:53;7.50;;;6.68;;
9208;SDS011;4639;48.862;9.188;2023-04-25T12:29:29;7.53;;;6.28;;
9208;SDS011;4639;48.862;9.188;2023-04-25T12:31:57;8.15;;;7.28;;
9208;SDS011;4639;48.862;9.188;2023-04-25T12:34:23;9.60;;;7.97;;
9208;SDS011;4639;48.862;9.188;2023-04-25T12:36:50;7.90;;;7.10;;
9208;SDS011;4639;48.862;9.188;2023-04-25T12:39:17;11.55;;;7.05;;
9208;SDS011;4639;48.862;9.188;2023-04-25T12:41:44;8.90;;;6.75;;
9208;SDS011;4639;48.862;9.188;2023-04-25T12:44:10;10.35;;;6.63;;
9208;SDS011;4639;48.862;9.188;2023-04-25T12:46:36;7.45;;;6.70;;
9208;SDS011;4639;48.862;9.188;2023-04-25T12:49:03;8.55;;;7.00;;
9208;SDS011;4639;48.862;9.188;2023-04-25T12:51:29;9.35;;;6.95;;
9208;SDS011;4639;48.862;9.188;2023-04-25T12:53:54;8.55;;;7.30;;
9208;SDS011;4639;48.862;9.188;2023-04-25T12:56:20;7.90;;;6.13;;
9208;SDS011;4639;48.862;9.188;2023-04-25T12:58:46;8.48;;;6.38;;
9208;SDS011;4639;48.862;9.188;2023-04-25T13:01:13;9.77;;;6.38;;
9208;SDS011;4639;48.862;9.188;2023-04-25T13:03:39;8.95;;;7.50;;
9208;SDS011;4639;48.862;9.188;2023-04-25T13:06:05;7.60;;;6.80;;
9208;SDS011;4639;48.862;9.188;2023-04-25T13:08:31;12.38;;;7.70;;
9208;SDS011;4639;48.862;9.188;2023-04-25T13:10:57;11.57;;;8.32;;
9208;SDS011;4639;48.862;9.188;2023-04-25T13:13:23;9.60;;;7.55;;
9208;SDS011;4639;48.862;9.188;2023-04-25T13:15:48;10.75;;;8.10;;
9208;SDS011;4639;48.862;9.188;2023-04-25T13:18:14;12.63;;;9.07;;
9208;SDS011;4639;48.862;9.188;2023-04-25T13:20:40;10.27;;;8.18;;
9208;SDS011;4639;48.862;9.188;2023-04-25T13:23:06;12.32;;;8.85;;
9208;SDS011;4639;48.862;9.188;2023-04-25T13:25:31;12.55;;;9.57;;
9208;SDS011;4639;48.862;9.188;2023-04-25T13:27:57;10.38;;;9.35;;
9208;SDS011;4639;48.862;9.188;2023-04-25T13:30:23;12.48;;;9.98;;
9208;SDS011;4639;48.862;9.188;2023-04-25T13:32:48;15.40;;;10.82;;
9208;SDS011;4639;48.862;9.188;2023-04-25T13:35:14;16.48;;;11.90;;
9208;SDS011;4639;48.862;9.188;2023-04-25T13:37:40;16.65;;;10.82;;
9208;SDS011;4639;48.862;9.188;2023-04-25T13:40:07;12.73;;;10.98;;
9208;SDS011;4639;48.862;9.188;2023-04-25T13:42:35;10.73;;;9.63;;
9208;SDS011;4639;48.862;9.188;2023-04-25T13:45:01;17.27;;;11.10;;
9208;SDS011;4639;48.862;9.188;2023-04-25T13:47:27;18.52;;;11.18;;
9208;SDS011;4639;48.862;9.188;2023-04-25T13:49:52;13.35;;;10.70;;
9208;SDS011;4639;48.862;9.188;2023-04-25T13:52:18;16.48;;;12.43;;
9208;SDS011;4639;48.862;9.188;2023-04-25T13:54:44;17.13;;;11.98;;
9208;SDS011;4639;48.862;9.188;2023-04-25T13:57:10;17.45;;;13.02;;
9208;SDS011;4639;48.862;9.188;2023-04-25T13:59:36;14.65;;;11.00;;
9208;SDS011;4639;48.862;9.188;2023-04-25T14:02:02;12.73;;;9.50;;
9208;SDS011;4639;48.862;9.188;2023-04-25T14:04:28;11.13;;;9.23;;
9208;SDS011;4639;48.862;9.188;2023-04-25T14:06:54;9.65;;;8.75;;
9208;SDS011;4639;48.862;9.188;2023-04-25T14:09:20;13.10;;;8.98;;
9208;SDS011;4639;48.862;9.188;2023-04-25T14:11:50;11.63;;;8.75;;
9208;SDS011;4639;48.862;9.188;2023-04-25T14:14:19;9.48;;;7.82;;
9208;SDS011;4639;48.862;9.188;2023-04-25T14:16:46;12.32;;;8.18;;
9208;SDS011;4639;48.862;9.188;2023-04-25T14:19:15;9.43;;;7.18;;
9208;SDS011;4639;48.862;9.188;2023-04-25T14:21:41;11.13;;;7.93;;
9208;SDS011;4639;48.862;9.188;2023-04-25T14:24:10;9.88;;;8.38;;
9208;SDS011;4639;48.862;9.188;2023-04-25T14:26:36;12.68;;;9.73;;
9208;SDS011;4639;48.862;9.188;2023-04-25T14:29:02;10.48;;;8.30;;
9208;SDS011;4639;48.862;9.188;2023-04-25T14:31:30;9.10;;;6.85;;
9208;SDS011;4639;48.862;9.188;2023-04-25T14:33:55;7.63;;;6.03;;
9208;SDS011;4639;48.862;9.188;2023-04-25T14:36:21;9.93;;;6.55;;
9208;SDS011;4639;48.862;9.188;2023-04-25T14:38:46;9.38;;;8.38;;
9208;SDS011;4639;48.862;9.188;2023-04-25T14:41:12;9.32;;;7.82;;
9208;SDS011;4639;48.862;9.188;2023-04-25T14:43:37;9.10;;;6.88;;
9208;SDS011;4639;48.862;9.188;2023-04-25T14:46:04;10.40;;;6.70;;
9208;SDS011;4639;48.862;9.188;2023-04-25T14:48:31;8.20;;;6.75;;
9208;SDS011;4639;48.862;9.188;2023-04-25T14:50:57;9.20;;;6.82;;
9208;SDS011;4639;48.862;9.188;2023-04-25T14:53:22;7.63;;;6.25;;
9208;SDS011;4639;48.862;9.188;2023-04-25T14:55:48;8.98;;;6.43;;
9208;SDS011;4639;48.862;9.188;2023-04-25T14:58:14;7.97;;;6.63;;
9208;SDS011;4639;48.862;9.188;2023-04-25T15:00:40;8.13;;;6.80;;
9208;SDS011;4639;48.862;9.188;2023-04-25T15:03:06;9.43;;;7.30;;
9208;SDS011;4639;48.862;9.188;2023-04-25T15:05:32;9.18;;;6.30;;
9208;SDS011;4639;48.862;9.188;2023-04-25T15:07:59;9.88;;;6.57;;
9208;SDS011;4639;48.862;9.188;2023-04-25T15:10:25;7.45;;;5.82;;
9208;SDS011;4639;48.862;9.188;2023-04-25T15:12:51;7.65;;;5.03;;
9208;SDS011;4639;48.862;9.188;2023-04-25T15:15:18;8.30;;;5.72;;
9208;SDS011;4639;48.862;9.188;2023-04-25T15:17:44;6.70;;;5.30;;
9208;SDS011;4639;48.862;9.188;2023-04-25T15:20:10;6.45;;;5.35;;